Symmes Township, Ohio
Current Conditions -  °F | °C
As of 10:53 PM on Saturday 24 Jan 2015 (Local Time) from KHAO Reporting Station
Scattered Clouds Scattered Clouds  
Wind Chill: 36°   Ceiling: Unl
Heat Index: 36°   Visibility: 9mi
Dew Point: 29°   Wind: 3mph
Humidity: 76%   Direction: 180°S
Pressure: 29.79"   Gusts: NA
Location:  39.2698°N, 84.3325°W
Report Text: KHAO 250353Z AUTO 18003KT 9SM FEW032 SCT120 02/M02 A2979 RMK AO2 SLP091 T00221017
Loading
Personal Weather Stations






























Interactive Weather Map New forecast layout! Learn more

10-Day Weather Forecast

Advertisements
Track Severe Weather on mobile